sensor_id;sensor_type;location;lat;lon;timestamp;pressure;altitude;pressure_sealevel;temperature;humidity
28606;BME280;46498;49.968;7.754;2022-10-15T00:04:29;96316.00;;;12.24;100.00
28606;BME280;46498;49.968;7.754;2022-10-15T00:09:30;96313.00;;;12.30;100.00
28606;BME280;46498;49.968;7.754;2022-10-15T00:14:31;96314.00;;;12.35;100.00
28606;BME280;46498;49.968;7.754;2022-10-15T00:19:32;96300.00;;;12.33;100.00
28606;BME280;46498;49.968;7.754;2022-10-15T00:24:33;96290.00;;;12.34;100.00
28606;BME280;46498;49.968;7.754;2022-10-15T00:29:36;96289.00;;;12.37;100.00
28606;BME280;46498;49.968;7.754;2022-10-15T00:34:36;96288.00;;;12.43;100.00
28606;BME280;46498;49.968;7.754;2022-10-15T00:39:37;96297.00;;;12.38;100.00
28606;BME280;46498;49.968;7.754;2022-10-15T00:44:56;96298.00;;;12.25;100.00
28606;BME280;46498;49.968;7.754;2022-10-15T00:50:05;96309.00;;;12.21;100.00
28606;BME280;46498;49.968;7.754;2022-10-15T00:55:20;96301.00;;;12.23;100.00
28606;BME280;46498;49.968;7.754;2022-10-15T01:00:24;96294.00;;;12.29;100.00
28606;BME280;46498;49.968;7.754;2022-10-15T01:05:25;96306.00;;;12.21;100.00
28606;BME280;46498;49.968;7.754;2022-10-15T01:18:19;96313.00;;;12.15;100.00
28606;BME280;46498;49.968;7.754;2022-10-15T01:25:02;96316.00;;;12.15;100.00
28606;BME280;46498;49.968;7.754;2022-10-15T01:30:27;96301.00;;;12.09;100.00
28606;BME280;46498;49.968;7.754;2022-10-15T01:35:47;96289.00;;;12.10;100.00
28606;BME280;46498;49.968;7.754;2022-10-15T01:41:09;96287.00;;;12.11;100.00
28606;BME280;46498;49.968;7.754;2022-10-15T01:46:15;96283.00;;;12.11;100.00
28606;BME280;46498;49.968;7.754;2022-10-15T01:51:35;96282.00;;;12.08;100.00
28606;BME280;46498;49.968;7.754;2022-10-15T01:56:39;96268.00;;;12.13;100.00
28606;BME280;46498;49.968;7.754;2022-10-15T02:01:47;96280.00;;;12.06;100.00
28606;BME280;46498;49.968;7.754;2022-10-15T02:07:15;96284.00;;;12.04;100.00
28606;BME280;46498;49.968;7.754;2022-10-15T02:19:42;96272.00;;;12.12;100.00
28606;BME280;46498;49.968;7.754;2022-10-15T02:24:52;96267.00;;;12.14;100.00
28606;BME280;46498;49.968;7.754;2022-10-15T02:29:57;96274.00;;;12.11;100.00
28606;BME280;46498;49.968;7.754;2022-10-15T02:35:00;96276.00;;;12.11;100.00
28606;BME280;46498;49.968;7.754;2022-10-15T02:40:03;96277.00;;;12.15;100.00
28606;BME280;46498;49.968;7.754;2022-10-15T02:45:05;96284.00;;;12.14;100.00
28606;BME280;46498;49.968;7.754;2022-10-15T02:50:06;96282.00;;;12.13;100.00
28606;BME280;46498;49.968;7.754;2022-10-15T02:55:08;96284.00;;;12.10;100.00
28606;BME280;46498;49.968;7.754;2022-10-15T03:00:09;96278.00;;;12.12;100.00
28606;BME280;46498;49.968;7.754;2022-10-15T03:05:12;96284.00;;;12.14;100.00
28606;BME280;46498;49.968;7.754;2022-10-15T03:10:13;96283.00;;;12.15;100.00
28606;BME280;46498;49.968;7.754;2022-10-15T03:15:14;96285.00;;;12.16;100.00
28606;BME280;46498;49.968;7.754;2022-10-15T03:20:17;96291.00;;;12.17;100.00
28606;BME280;46498;49.968;7.754;2022-10-15T03:25:18;96295.00;;;12.19;100.00
28606;BME280;46498;49.968;7.754;2022-10-15T03:30:19;96295.00;;;12.14;100.00
28606;BME280;46498;49.968;7.754;2022-10-15T03:35:20;96293.00;;;12.16;100.00
28606;BME280;46498;49.968;7.754;2022-10-15T03:40:21;96307.00;;;12.23;100.00
28606;BME280;46498;49.968;7.754;2022-10-15T03:45:26;96293.00;;;12.22;100.00
28606;BME280;46498;49.968;7.754;2022-10-15T03:50:40;96301.00;;;12.21;100.00
28606;BME280;46498;49.968;7.754;2022-10-15T03:55:41;96320.00;;;12.20;100.00
28606;BME280;46498;49.968;7.754;2022-10-15T04:00:43;96327.00;;;12.26;100.00
28606;BME280;46498;49.968;7.754;2022-10-15T04:05:49;96317.00;;;12.25;100.00
28606;BME280;46498;49.968;7.754;2022-10-15T04:10:56;96306.00;;;12.30;100.00
28606;BME280;46498;49.968;7.754;2022-10-15T04:15:59;96325.00;;;12.17;100.00
28606;BME280;46498;49.968;7.754;2022-10-15T04:21:01;96315.00;;;12.18;100.00
28606;BME280;46498;49.968;7.754;2022-10-15T04:26:02;96319.00;;;12.21;100.00
28606;BME280;46498;49.968;7.754;2022-10-15T04:31:04;96325.00;;;12.27;100.00
28606;BME280;46498;49.968;7.754;2022-10-15T04:36:08;96319.00;;;12.30;100.00
28606;BME280;46498;49.968;7.754;2022-10-15T04:41:33;96324.00;;;12.35;100.00
28606;BME280;46498;49.968;7.754;2022-10-15T04:46:40;96332.00;;;12.36;100.00
28606;BME280;46498;49.968;7.754;2022-10-15T04:51:57;96327.00;;;12.33;100.00
28606;BME280;46498;49.968;7.754;2022-10-15T04:57:04;96326.00;;;12.32;100.00
28606;BME280;46498;49.968;7.754;2022-10-15T05:02:05;96326.00;;;12.29;100.00
28606;BME280;46498;49.968;7.754;2022-10-15T05:07:08;96317.00;;;12.39;100.00
28606;BME280;46498;49.968;7.754;2022-10-15T05:12:09;96326.00;;;12.29;100.00
28606;BME280;46498;49.968;7.754;2022-10-15T05:17:10;96349.00;;;12.32;100.00
28606;BME280;46498;49.968;7.754;2022-10-15T05:22:13;96353.00;;;12.41;100.00
28606;BME280;46498;49.968;7.754;2022-10-15T05:27:20;96365.00;;;12.38;100.00
28606;BME280;46498;49.968;7.754;2022-10-15T05:32:21;96370.00;;;12.33;100.00
28606;BME280;46498;49.968;7.754;2022-10-15T05:37:24;96383.00;;;12.43;100.00
28606;BME280;46498;49.968;7.754;2022-10-15T05:42:26;96398.00;;;12.40;100.00
28606;BME280;46498;49.968;7.754;2022-10-15T05:47:30;96390.00;;;12.33;100.00
28606;BME280;46498;49.968;7.754;2022-10-15T05:52:45;96385.00;;;12.42;100.00
28606;BME280;46498;49.968;7.754;2022-10-15T05:58:00;96370.00;;;12.50;100.00
28606;BME280;46498;49.968;7.754;2022-10-15T06:03:01;96381.00;;;12.58;100.00
28606;BME280;46498;49.968;7.754;2022-10-15T06:08:01;96386.00;;;12.52;100.00
28606;BME280;46498;49.968;7.754;2022-10-15T06:13:03;96396.00;;;12.51;100.00
28606;BME280;46498;49.968;7.754;2022-10-15T06:18:05;96392.00;;;12.52;100.00
28606;BME280;46498;49.968;7.754;2022-10-15T06:23:06;96387.00;;;12.49;100.00
28606;BME280;46498;49.968;7.754;2022-10-15T06:28:09;96399.00;;;12.44;100.00
28606;BME280;46498;49.968;7.754;2022-10-15T06:33:14;96396.00;;;12.51;100.00
28606;BME280;46498;49.968;7.754;2022-10-15T06:38:16;96409.00;;;12.47;100.00
28606;BME280;46498;49.968;7.754;2022-10-15T06:43:17;96411.00;;;12.55;100.00
28606;BME280;46498;49.968;7.754;2022-10-15T06:48:18;96411.00;;;12.63;100.00
28606;BME280;46498;49.968;7.754;2022-10-15T06:53:19;96417.00;;;12.61;100.00
28606;BME280;46498;49.968;7.754;2022-10-15T06:58:20;96419.00;;;12.61;100.00
28606;BME280;46498;49.968;7.754;2022-10-15T07:03:20;96430.00;;;12.63;100.00
28606;BME280;46498;49.968;7.754;2022-10-15T07:08:23;96437.00;;;12.65;100.00
28606;BME280;46498;49.968;7.754;2022-10-15T07:13:25;96440.00;;;12.71;100.00
28606;BME280;46498;49.968;7.754;2022-10-15T07:18:26;96444.00;;;12.70;100.00
28606;BME280;46498;49.968;7.754;2022-10-15T07:23:26;96445.00;;;12.69;100.00
28606;BME280;46498;49.968;7.754;2022-10-15T07:28:28;96457.00;;;12.73;100.00
28606;BME280;46498;49.968;7.754;2022-10-15T07:33:30;96440.00;;;12.67;100.00
28606;BME280;46498;49.968;7.754;2022-10-15T07:38:34;96443.00;;;12.66;100.00
28606;BME280;46498;49.968;7.754;2022-10-15T07:43:36;96457.00;;;12.71;100.00
28606;BME280;46498;49.968;7.754;2022-10-15T07:48:37;96462.00;;;12.81;100.00
28606;BME280;46498;49.968;7.754;2022-10-15T07:53:38;96464.00;;;12.83;100.00
28606;BME280;46498;49.968;7.754;2022-10-15T07:58:40;96460.00;;;12.84;100.00
28606;BME280;46498;49.968;7.754;2022-10-15T08:03:42;96462.00;;;12.81;100.00
28606;BME280;46498;49.968;7.754;2022-10-15T08:08:43;96469.00;;;12.93;100.00
28606;BME280;46498;49.968;7.754;2022-10-15T08:13:44;96466.00;;;12.99;100.00
28606;BME280;46498;49.968;7.754;2022-10-15T08:18:46;96476.00;;;13.05;100.00
28606;BME280;46498;49.968;7.754;2022-10-15T08:23:47;96470.00;;;13.19;100.00
28606;BME280;46498;49.968;7.754;2022-10-15T08:28:48;96467.00;;;13.27;100.00
28606;BME280;46498;49.968;7.754;2022-10-15T08:33:51;96472.00;;;13.38;100.00
28606;BME280;46498;49.968;7.754;2022-10-15T08:38:52;96475.00;;;13.51;100.00
28606;BME280;46498;49.968;7.754;2022-10-15T08:43:53;96474.00;;;13.53;100.00
28606;BME280;46498;49.968;7.754;2022-10-15T08:48:55;96478.00;;;13.58;100.00
28606;BME280;46498;49.968;7.754;2022-10-15T08:54:00;96483.00;;;13.65;100.00
28606;BME280;46498;49.968;7.754;2022-10-15T08:59:39;96486.00;;;13.66;100.00
28606;BME280;46498;49.968;7.754;2022-10-15T09:05:50;96491.00;;;13.61;100.00
28606;BME280;46498;49.968;7.754;2022-10-15T09:10:59;96499.00;;;13.68;100.00
28606;BME280;46498;49.968;7.754;2022-10-15T09:16:24;96504.00;;;13.60;100.00
28606;BME280;46498;49.968;7.754;2022-10-15T09:21:27;96496.00;;;13.47;100.00
28606;BME280;46498;49.968;7.754;2022-10-15T09:26:46;96503.00;;;13.47;100.00
28606;BME280;46498;49.968;7.754;2022-10-15T09:39:55;96500.00;;;13.42;100.00
28606;BME280;46498;49.968;7.754;2022-10-15T09:45:04;96494.00;;;13.56;100.00
28606;BME280;46498;49.968;7.754;2022-10-15T09:50:08;96487.00;;;13.69;100.00
28606;BME280;46498;49.968;7.754;2022-10-15T10:01:00;96502.00;;;13.79;100.00
28606;BME280;46498;49.968;7.754;2022-10-15T10:06:10;96505.00;;;13.81;100.00
28606;BME280;46498;49.968;7.754;2022-10-15T10:11:20;96503.00;;;13.83;100.00
28606;BME280;46498;49.968;7.754;2022-10-15T10:16:22;96503.00;;;13.97;100.00
28606;BME280;46498;49.968;7.754;2022-10-15T10:21:32;96513.00;;;14.02;100.00
28606;BME280;46498;49.968;7.754;2022-10-15T10:26:34;96500.00;;;14.59;100.00
28606;BME280;46498;49.968;7.754;2022-10-15T10:31:35;96505.00;;;15.34;100.00
28606;BME280;46498;49.968;7.754;2022-10-15T10:36:47;96505.00;;;15.51;100.00
28606;BME280;46498;49.968;7.754;2022-10-15T10:41:55;96501.00;;;15.72;100.00
28606;BME280;46498;49.968;7.754;2022-10-15T10:47:11;96491.00;;;15.46;100.00
28606;BME280;46498;49.968;7.754;2022-10-15T10:53:20;96491.00;;;15.35;100.00
28606;BME280;46498;49.968;7.754;2022-10-15T10:58:22;96503.00;;;15.36;100.00
28606;BME280;46498;49.968;7.754;2022-10-15T11:03:36;96488.00;;;15.48;100.00
28606;BME280;46498;49.968;7.754;2022-10-15T11:09:10;96481.00;;;16.26;100.00
28606;BME280;46498;49.968;7.754;2022-10-15T11:14:29;96473.00;;;16.24;100.00
28606;BME280;46498;49.968;7.754;2022-10-15T11:19:39;96473.00;;;16.09;100.00
28606;BME280;46498;49.968;7.754;2022-10-15T11:25:51;96465.00;;;16.11;100.00
28606;BME280;46498;49.968;7.754;2022-10-15T11:32:38;96457.00;;;16.04;100.00
28606;BME280;46498;49.968;7.754;2022-10-15T11:38:42;96472.00;;;15.91;100.00
28606;BME280;46498;49.968;7.754;2022-10-15T11:44:16;96468.00;;;15.92;100.00
28606;BME280;46498;49.968;7.754;2022-10-15T11:50:49;96467.00;;;15.71;100.00
28606;BME280;46498;49.968;7.754;2022-10-15T11:57:44;96469.00;;;15.50;100.00
28606;BME280;46498;49.968;7.754;2022-10-15T12:02:48;96472.00;;;15.32;100.00
28606;BME280;46498;49.968;7.754;2022-10-15T12:07:50;96450.00;;;15.26;100.00
28606;BME280;46498;49.968;7.754;2022-10-15T12:15:03;96461.00;;;15.14;100.00
28606;BME280;46498;49.968;7.754;2022-10-15T12:20:15;96456.00;;;14.84;100.00
28606;BME280;46498;49.968;7.754;2022-10-15T12:28:50;96456.00;;;14.84;100.00
28606;BME280;46498;49.968;7.754;2022-10-15T12:33:56;96440.00;;;14.68;100.00
28606;BME280;46498;49.968;7.754;2022-10-15T12:39:03;96434.00;;;14.73;100.00
28606;BME280;46498;49.968;7.754;2022-10-15T12:44:27;96432.00;;;14.65;100.00
28606;BME280;46498;49.968;7.754;2022-10-15T12:49:58;96433.00;;;14.57;100.00
28606;BME280;46498;49.968;7.754;2022-10-15T12:55:24;96421.00;;;14.68;100.00
28606;BME280;46498;49.968;7.754;2022-10-15T13:00:31;96425.00;;;14.71;100.00
28606;BME280;46498;49.968;7.754;2022-10-15T13:05:34;96425.00;;;14.71;100.00
28606;BME280;46498;49.968;7.754;2022-10-15T13:10:46;96420.00;;;14.70;100.00
28606;BME280;46498;49.968;7.754;2022-10-15T13:15:58;96420.00;;;14.64;100.00
28606;BME280;46498;49.968;7.754;2022-10-15T13:21:01;96415.00;;;14.59;100.00
28606;BME280;46498;49.968;7.754;2022-10-15T13:26:23;96418.00;;;14.59;100.00
28606;BME280;46498;49.968;7.754;2022-10-15T13:31:31;96413.00;;;14.56;100.00
28606;BME280;46498;49.968;7.754;2022-10-15T13:36:34;96408.00;;;14.69;100.00
28606;BME280;46498;49.968;7.754;2022-10-15T13:41:37;96428.00;;;14.67;100.00
28606;BME280;46498;49.968;7.754;2022-10-15T13:46:39;96447.00;;;14.64;100.00
28606;BME280;46498;49.968;7.754;2022-10-15T13:51:48;96436.00;;;14.60;100.00
28606;BME280;46498;49.968;7.754;2022-10-15T13:56:55;96430.00;;;14.60;100.00
28606;BME280;46498;49.968;7.754;2022-10-15T14:02:00;96441.00;;;14.69;100.00
28606;BME280;46498;49.968;7.754;2022-10-15T14:07:15;96439.00;;;14.78;100.00
28606;BME280;46498;49.968;7.754;2022-10-15T14:12:18;96435.00;;;14.78;100.00
28606;BME280;46498;49.968;7.754;2022-10-15T14:17:23;96449.00;;;14.72;100.00
28606;BME280;46498;49.968;7.754;2022-10-15T14:22:26;96428.00;;;14.77;100.00
28606;BME280;46498;49.968;7.754;2022-10-15T14:27:28;96421.00;;;14.86;100.00
28606;BME280;46498;49.968;7.754;2022-10-15T14:32:47;96432.00;;;15.08;100.00
28606;BME280;46498;49.968;7.754;2022-10-15T14:38:00;96433.00;;;15.07;100.00
28606;BME280;46498;49.968;7.754;2022-10-15T14:43:16;96453.00;;;15.00;100.00
28606;BME280;46498;49.968;7.754;2022-10-15T14:48:32;96450.00;;;14.89;100.00
28606;BME280;46498;49.968;7.754;2022-10-15T14:53:37;96449.00;;;14.86;100.00
28606;BME280;46498;49.968;7.754;2022-10-15T14:58:39;96453.00;;;14.89;100.00
28606;BME280;46498;49.968;7.754;2022-10-15T15:03:47;96452.00;;;14.82;100.00
28606;BME280;46498;49.968;7.754;2022-10-15T15:08:48;96453.00;;;14.84;100.00
28606;BME280;46498;49.968;7.754;2022-10-15T15:13:50;96458.00;;;14.82;100.00
28606;BME280;46498;49.968;7.754;2022-10-15T15:18:51;96461.00;;;14.80;100.00
28606;BME280;46498;49.968;7.754;2022-10-15T15:23:52;96473.00;;;14.72;100.00
28606;BME280;46498;49.968;7.754;2022-10-15T15:28:53;96465.00;;;14.70;100.00
28606;BME280;46498;49.968;7.754;2022-10-15T15:33:55;96464.00;;;14.72;100.00
28606;BME280;46498;49.968;7.754;2022-10-15T15:38:56;96454.00;;;14.63;100.00
28606;BME280;46498;49.968;7.754;2022-10-15T15:43:59;96463.00;;;14.71;100.00
28606;BME280;46498;49.968;7.754;2022-10-15T15:49:00;96452.00;;;14.67;100.00
28606;BME280;46498;49.968;7.754;2022-10-15T15:54:01;96452.00;;;14.71;100.00
28606;BME280;46498;49.968;7.754;2022-10-15T15:59:05;96473.00;;;14.70;100.00
28606;BME280;46498;49.968;7.754;2022-10-15T16:04:06;96465.00;;;14.63;100.00
28606;BME280;46498;49.968;7.754;2022-10-15T16:09:08;96471.00;;;14.65;100.00
28606;BME280;46498;49.968;7.754;2022-10-15T16:14:08;96488.00;;;14.62;100.00
28606;BME280;46498;49.968;7.754;2022-10-15T16:19:10;96486.00;;;14.72;100.00
28606;BME280;46498;49.968;7.754;2022-10-15T16:24:11;96482.00;;;14.54;100.00
28606;BME280;46498;49.968;7.754;2022-10-15T16:29:12;96485.00;;;14.48;100.00
28606;BME280;46498;49.968;7.754;2022-10-15T16:34:15;96493.00;;;14.48;100.00
28606;BME280;46498;49.968;7.754;2022-10-15T16:39:15;96493.00;;;14.44;100.00
28606;BME280;46498;49.968;7.754;2022-10-15T16:44:16;96500.00;;;14.45;100.00
28606;BME280;46498;49.968;7.754;2022-10-15T16:49:17;96507.00;;;14.38;100.00
28606;BME280;46498;49.968;7.754;2022-10-15T16:54:18;96511.00;;;14.47;100.00
28606;BME280;46498;49.968;7.754;2022-10-15T16:59:19;96507.00;;;14.46;100.00
28606;BME280;46498;49.968;7.754;2022-10-15T17:04:20;96513.00;;;14.43;100.00
28606;BME280;46498;49.968;7.754;2022-10-15T17:09:21;96529.00;;;14.41;100.00
28606;BME280;46498;49.968;7.754;2022-10-15T17:14:23;96527.00;;;14.43;100.00
28606;BME280;46498;49.968;7.754;2022-10-15T17:19:24;96527.00;;;14.40;100.00
28606;BME280;46498;49.968;7.754;2022-10-15T17:24:30;96536.00;;;14.31;100.00
28606;BME280;46498;49.968;7.754;2022-10-15T17:29:31;96546.00;;;14.43;100.00
28606;BME280;46498;49.968;7.754;2022-10-15T17:34:34;96546.00;;;14.39;100.00
28606;BME280;46498;49.968;7.754;2022-10-15T17:39:35;96549.00;;;14.32;100.00
28606;BME280;46498;49.968;7.754;2022-10-15T17:44:35;96566.00;;;14.34;100.00
28606;BME280;46498;49.968;7.754;2022-10-15T17:49:36;96566.00;;;14.34;100.00
28606;BME280;46498;49.968;7.754;2022-10-15T17:54:37;96580.00;;;14.29;100.00
28606;BME280;46498;49.968;7.754;2022-10-15T17:59:38;96589.00;;;14.28;100.00
28606;BME280;46498;49.968;7.754;2022-10-15T18:04:39;96589.00;;;14.19;100.00
28606;BME280;46498;49.968;7.754;2022-10-15T18:09:40;96594.00;;;14.15;100.00
28606;BME280;46498;49.968;7.754;2022-10-15T18:14:42;96594.00;;;14.08;100.00
28606;BME280;46498;49.968;7.754;2022-10-15T18:19:44;96613.00;;;14.06;100.00
28606;BME280;46498;49.968;7.754;2022-10-15T18:24:45;96612.00;;;14.07;100.00
28606;BME280;46498;49.968;7.754;2022-10-15T18:29:46;96612.00;;;14.09;100.00
28606;BME280;46498;49.968;7.754;2022-10-15T18:34:47;96617.00;;;14.00;100.00
28606;BME280;46498;49.968;7.754;2022-10-15T18:39:47;96617.00;;;13.95;100.00
28606;BME280;46498;49.968;7.754;2022-10-15T18:44:48;96625.00;;;13.94;100.00
28606;BME280;46498;49.968;7.754;2022-10-15T18:49:50;96629.00;;;14.02;100.00
28606;BME280;46498;49.968;7.754;2022-10-15T18:54:51;96639.00;;;14.13;100.00
28606;BME280;46498;49.968;7.754;2022-10-15T18:59:52;96626.00;;;13.98;100.00
28606;BME280;46498;49.968;7.754;2022-10-15T19:04:53;96633.00;;;13.94;100.00
28606;BME280;46498;49.968;7.754;2022-10-15T19:09:54;96625.00;;;14.05;100.00
28606;BME280;46498;49.968;7.754;2022-10-15T19:14:59;96626.00;;;13.99;100.00
28606;BME280;46498;49.968;7.754;2022-10-15T19:20:00;96616.00;;;13.97;100.00
28606;BME280;46498;49.968;7.754;2022-10-15T19:25:01;96625.00;;;14.05;100.00
28606;BME280;46498;49.968;7.754;2022-10-15T19:30:03;96641.00;;;14.06;100.00
28606;BME280;46498;49.968;7.754;2022-10-15T19:35:07;96650.00;;;13.98;100.00
28606;BME280;46498;49.968;7.754;2022-10-15T19:40:08;96648.00;;;13.90;100.00
28606;BME280;46498;49.968;7.754;2022-10-15T19:45:10;96660.00;;;13.89;100.00
28606;BME280;46498;49.968;7.754;2022-10-15T19:50:11;96664.00;;;13.84;100.00
28606;BME280;46498;49.968;7.754;2022-10-15T19:55:12;96668.00;;;13.78;100.00
28606;BME280;46498;49.968;7.754;2022-10-15T20:00:14;96673.00;;;13.88;100.00
28606;BME280;46498;49.968;7.754;2022-10-15T20:05:16;96673.00;;;13.72;100.00
28606;BME280;46498;49.968;7.754;2022-10-15T20:10:17;96683.00;;;13.75;100.00
28606;BME280;46498;49.968;7.754;2022-10-15T20:15:18;96688.00;;;13.55;100.00
28606;BME280;46498;49.968;7.754;2022-10-15T20:20:18;96678.00;;;13.61;100.00
28606;BME280;46498;49.968;7.754;2022-10-15T20:25:19;96678.00;;;13.45;100.00
28606;BME280;46498;49.968;7.754;2022-10-15T20:30:20;96696.00;;;13.39;100.00
28606;BME280;46498;49.968;7.754;2022-10-15T20:35:21;96710.00;;;13.32;100.00
28606;BME280;46498;49.968;7.754;2022-10-15T20:40:22;96716.00;;;13.40;100.00
28606;BME280;46498;49.968;7.754;2022-10-15T20:45:26;96711.00;;;13.35;100.00
28606;BME280;46498;49.968;7.754;2022-10-15T20:50:32;96713.00;;;13.27;100.00
28606;BME280;46498;49.968;7.754;2022-10-15T20:55:34;96717.00;;;13.32;100.00
28606;BME280;46498;49.968;7.754;2022-10-15T21:00:35;96735.00;;;13.31;100.00
28606;BME280;46498;49.968;7.754;2022-10-15T21:05:36;96731.00;;;13.20;100.00
28606;BME280;46498;49.968;7.754;2022-10-15T21:10:37;96722.00;;;13.19;100.00
28606;BME280;46498;49.968;7.754;2022-10-15T21:15:38;96713.00;;;13.09;100.00
28606;BME280;46498;49.968;7.754;2022-10-15T21:20:38;96726.00;;;13.05;100.00
28606;BME280;46498;49.968;7.754;2022-10-15T21:25:39;96734.00;;;13.09;100.00
28606;BME280;46498;49.968;7.754;2022-10-15T21:30:40;96743.00;;;12.99;100.00
28606;BME280;46498;49.968;7.754;2022-10-15T21:35:41;96743.00;;;12.99;100.00
28606;BME280;46498;49.968;7.754;2022-10-15T21:40:42;96738.00;;;12.94;100.00
28606;BME280;46498;49.968;7.754;2022-10-15T21:45:44;96758.00;;;12.80;100.00
28606;BME280;46498;49.968;7.754;2022-10-15T21:50:46;96758.00;;;12.73;100.00
28606;BME280;46498;49.968;7.754;2022-10-15T21:55:54;96760.00;;;12.81;100.00
28606;BME280;46498;49.968;7.754;2022-10-15T22:00:55;96781.00;;;12.94;100.00
28606;BME280;46498;49.968;7.754;2022-10-15T22:05:57;96768.00;;;12.85;100.00
28606;BME280;46498;49.968;7.754;2022-10-15T22:11:25;96781.00;;;12.90;100.00
28606;BME280;46498;49.968;7.754;2022-10-15T22:16:27;96785.00;;;12.92;100.00
28606;BME280;46498;49.968;7.754;2022-10-15T22:21:33;96781.00;;;12.90;100.00
28606;BME280;46498;49.968;7.754;2022-10-15T22:26:38;96781.00;;;12.97;100.00
28606;BME280;46498;49.968;7.754;2022-10-15T22:31:39;96787.00;;;12.83;100.00
28606;BME280;46498;49.968;7.754;2022-10-15T22:36:40;96791.00;;;12.72;100.00
28606;BME280;46498;49.968;7.754;2022-10-15T22:41:43;96781.00;;;12.69;100.00
28606;BME280;46498;49.968;7.754;2022-10-15T22:46:44;96786.00;;;12.68;100.00
28606;BME280;46498;49.968;7.754;2022-10-15T22:51:47;96783.00;;;12.68;100.00
28606;BME280;46498;49.968;7.754;2022-10-15T22:56:49;96804.00;;;12.55;100.00
28606;BME280;46498;49.968;7.754;2022-10-15T23:01:50;96814.00;;;12.42;100.00
28606;BME280;46498;49.968;7.754;2022-10-15T23:06:51;96799.00;;;12.43;100.00
28606;BME280;46498;49.968;7.754;2022-10-15T23:11:52;96800.00;;;12.37;100.00
28606;BME280;46498;49.968;7.754;2022-10-15T23:16:53;96806.00;;;12.28;100.00
28606;BME280;46498;49.968;7.754;2022-10-15T23:21:55;96816.00;;;12.20;100.00
28606;BME280;46498;49.968;7.754;2022-10-15T23:26:56;96825.00;;;12.07;100.00
28606;BME280;46498;49.968;7.754;2022-10-15T23:31:56;96824.00;;;12.08;100.00
28606;BME280;46498;49.968;7.754;2022-10-15T23:36:57;96813.00;;;12.11;100.00
28606;BME280;46498;49.968;7.754;2022-10-15T23:41:59;96815.00;;;12.20;100.00
28606;BME280;46498;49.968;7.754;2022-10-15T23:47:00;96817.00;;;12.35;100.00
28606;BME280;46498;49.968;7.754;2022-10-15T23:52:01;96808.00;;;12.42;100.00
28606;BME280;46498;49.968;7.754;2022-10-15T23:57:02;96815.00;;;12.32;100.00
